sensor_id;sensor_type;location;lat;lon;timestamp;P1;durP1;ratioP1;P2;durP2;ratioP2
25917;SDS011;13899;51.174;4.456;2024-01-07T00:01:02;11.40;;;9.93;;
25917;SDS011;13899;51.174;4.456;2024-01-07T00:03:27;11.77;;;10.57;;
25917;SDS011;13899;51.174;4.456;2024-01-07T00:05:53;8.57;;;7.67;;
25917;SDS011;13899;51.174;4.456;2024-01-07T00:08:19;10.70;;;9.60;;
25917;SDS011;13899;51.174;4.456;2024-01-07T00:10:44;11.37;;;10.37;;
25917;SDS011;13899;51.174;4.456;2024-01-07T00:13:10;11.10;;;9.97;;
25917;SDS011;13899;51.174;4.456;2024-01-07T00:15:35;13.23;;;10.10;;
25917;SDS011;13899;51.174;4.456;2024-01-07T00:18:01;13.23;;;10.27;;
25917;SDS011;13899;51.174;4.456;2024-01-07T00:20:27;11.05;;;9.65;;
25917;SDS011;13899;51.174;4.456;2024-01-07T00:22:53;9.27;;;8.37;;
25917;SDS011;13899;51.174;4.456;2024-01-07T00:25:18;12.13;;;10.97;;
25917;SDS011;13899;51.174;4.456;2024-01-07T00:27:44;11.70;;;10.47;;
25917;SDS011;13899;51.174;4.456;2024-01-07T00:30:10;12.63;;;11.37;;
25917;SDS011;13899;51.174;4.456;2024-01-07T00:32:36;13.55;;;12.02;;
25917;SDS011;13899;51.174;4.456;2024-01-07T00:35:02;14.13;;;12.73;;
25917;SDS011;13899;51.174;4.456;2024-01-07T00:37:28;13.90;;;12.48;;
25917;SDS011;13899;51.174;4.456;2024-01-07T00:39:53;13.57;;;12.20;;
25917;SDS011;13899;51.174;4.456;2024-01-07T00:42:19;14.20;;;12.53;;
25917;SDS011;13899;51.174;4.456;2024-01-07T00:44:46;13.20;;;11.90;;
25917;SDS011;13899;51.174;4.456;2024-01-07T00:47:11;14.27;;;12.87;;
25917;SDS011;13899;51.174;4.456;2024-01-07T00:49:37;14.13;;;12.53;;
25917;SDS011;13899;51.174;4.456;2024-01-07T00:52:04;13.30;;;12.00;;
25917;SDS011;13899;51.174;4.456;2024-01-07T00:54:30;12.97;;;10.73;;
25917;SDS011;13899;51.174;4.456;2024-01-07T00:56:56;14.20;;;12.70;;
25917;SDS011;13899;51.174;4.456;2024-01-07T00:59:21;15.70;;;13.27;;
25917;SDS011;13899;51.174;4.456;2024-01-07T01:01:47;13.50;;;12.10;;
25917;SDS011;13899;51.174;4.456;2024-01-07T01:04:12;14.73;;;13.13;;
25917;SDS011;13899;51.174;4.456;2024-01-07T01:06:38;13.80;;;12.30;;
25917;SDS011;13899;51.174;4.456;2024-01-07T01:09:04;14.83;;;13.23;;
25917;SDS011;13899;51.174;4.456;2024-01-07T01:11:29;14.00;;;12.60;;
25917;SDS011;13899;51.174;4.456;2024-01-07T01:13:55;14.60;;;12.80;;
25917;SDS011;13899;51.174;4.456;2024-01-07T01:16:20;14.37;;;12.87;;
25917;SDS011;13899;51.174;4.456;2024-01-07T01:18:46;13.63;;;11.83;;
25917;SDS011;13899;51.174;4.456;2024-01-07T01:21:12;18.07;;;13.47;;
25917;SDS011;13899;51.174;4.456;2024-01-07T01:23:37;19.17;;;13.63;;
25917;SDS011;13899;51.174;4.456;2024-01-07T01:26:03;17.10;;;13.00;;
25917;SDS011;13899;51.174;4.456;2024-01-07T01:28:29;14.77;;;12.53;;
25917;SDS011;13899;51.174;4.456;2024-01-07T01:30:54;15.90;;;12.50;;
25917;SDS011;13899;51.174;4.456;2024-01-07T01:33:20;11.10;;;8.97;;
25917;SDS011;13899;51.174;4.456;2024-01-07T01:35:45;17.27;;;14.17;;
25917;SDS011;13899;51.174;4.456;2024-01-07T01:38:11;16.30;;;12.60;;
25917;SDS011;13899;51.174;4.456;2024-01-07T01:40:37;16.20;;;13.55;;
25917;SDS011;13899;51.174;4.456;2024-01-07T01:43:03;14.73;;;13.20;;
25917;SDS011;13899;51.174;4.456;2024-01-07T01:45:29;18.33;;;13.73;;
25917;SDS011;13899;51.174;4.456;2024-01-07T01:47:54;15.97;;;13.43;;
25917;SDS011;13899;51.174;4.456;2024-01-07T01:50:21;17.20;;;14.33;;
25917;SDS011;13899;51.174;4.456;2024-01-07T01:52:47;16.75;;;13.63;;
25917;SDS011;13899;51.174;4.456;2024-01-07T01:55:14;16.27;;;14.32;;
25917;SDS011;13899;51.174;4.456;2024-01-07T01:57:40;12.15;;;10.85;;
25917;SDS011;13899;51.174;4.456;2024-01-07T02:00:06;16.90;;;14.80;;
25917;SDS011;13899;51.174;4.456;2024-01-07T02:02:33;17.27;;;14.95;;
25917;SDS011;13899;51.174;4.456;2024-01-07T02:05:02;19.43;;;15.17;;
25917;SDS011;13899;51.174;4.456;2024-01-07T02:07:28;16.17;;;14.07;;
25917;SDS011;13899;51.174;4.456;2024-01-07T02:09:56;18.63;;;14.80;;
25917;SDS011;13899;51.174;4.456;2024-01-07T02:12:22;17.30;;;14.57;;
25917;SDS011;13899;51.174;4.456;2024-01-07T02:14:47;19.80;;;14.60;;
25917;SDS011;13899;51.174;4.456;2024-01-07T02:17:13;19.43;;;15.47;;
25917;SDS011;13899;51.174;4.456;2024-01-07T02:19:39;16.05;;;13.88;;
25917;SDS011;13899;51.174;4.456;2024-01-07T02:22:05;18.40;;;15.23;;
25917;SDS011;13899;51.174;4.456;2024-01-07T02:24:30;18.20;;;14.93;;
25917;SDS011;13899;51.174;4.456;2024-01-07T02:26:57;21.63;;;16.83;;
25917;SDS011;13899;51.174;4.456;2024-01-07T02:29:23;20.40;;;13.27;;
25917;SDS011;13899;51.174;4.456;2024-01-07T02:31:48;20.67;;;16.27;;
25917;SDS011;13899;51.174;4.456;2024-01-07T02:34:14;19.48;;;16.08;;
25917;SDS011;13899;51.174;4.456;2024-01-07T02:36:40;20.33;;;16.50;;
25917;SDS011;13899;51.174;4.456;2024-01-07T02:39:05;23.83;;;17.53;;
25917;SDS011;13899;51.174;4.456;2024-01-07T02:41:31;18.00;;;14.77;;
25917;SDS011;13899;51.174;4.456;2024-01-07T02:43:57;18.17;;;14.00;;
25917;SDS011;13899;51.174;4.456;2024-01-07T02:46:23;24.87;;;17.83;;
25917;SDS011;13899;51.174;4.456;2024-01-07T02:51:15;27.43;;;17.23;;
25917;SDS011;13899;51.174;4.456;2024-01-07T02:53:40;21.47;;;17.50;;
25917;SDS011;13899;51.174;4.456;2024-01-07T02:56:06;27.00;;;18.47;;
25917;SDS011;13899;51.174;4.456;2024-01-07T02:58:33;22.05;;;16.25;;
25917;SDS011;13899;51.174;4.456;2024-01-07T03:00:59;21.87;;;16.23;;
25917;SDS011;13899;51.174;4.456;2024-01-07T03:03:25;22.37;;;16.53;;
25917;SDS011;13899;51.174;4.456;2024-01-07T03:05:51;20.60;;;16.33;;
25917;SDS011;13899;51.174;4.456;2024-01-07T03:08:16;18.93;;;13.87;;
25917;SDS011;13899;51.174;4.456;2024-01-07T03:10:42;22.73;;;16.77;;
25917;SDS011;13899;51.174;4.456;2024-01-07T03:13:07;21.77;;;16.10;;
25917;SDS011;13899;51.174;4.456;2024-01-07T03:15:33;22.43;;;17.13;;
25917;SDS011;13899;51.174;4.456;2024-01-07T03:17:59;20.27;;;16.77;;
25917;SDS011;13899;51.174;4.456;2024-01-07T03:20:24;23.57;;;18.20;;
25917;SDS011;13899;51.174;4.456;2024-01-07T03:22:50;25.27;;;18.10;;
25917;SDS011;13899;51.174;4.456;2024-01-07T03:25:15;23.73;;;18.00;;
25917;SDS011;13899;51.174;4.456;2024-01-07T03:27:41;23.73;;;17.73;;
25917;SDS011;13899;51.174;4.456;2024-01-07T03:30:07;21.33;;;17.07;;
25917;SDS011;13899;51.174;4.456;2024-01-07T03:32:34;22.80;;;16.60;;
25917;SDS011;13899;51.174;4.456;2024-01-07T03:34:59;21.63;;;17.23;;
25917;SDS011;13899;51.174;4.456;2024-01-07T03:37:25;21.90;;;17.00;;
25917;SDS011;13899;51.174;4.456;2024-01-07T03:39:50;19.30;;;14.27;;
25917;SDS011;13899;51.174;4.456;2024-01-07T03:42:16;19.83;;;16.70;;
25917;SDS011;13899;51.174;4.456;2024-01-07T03:44:42;23.80;;;19.13;;
25917;SDS011;13899;51.174;4.456;2024-01-07T03:47:07;20.97;;;16.57;;
25917;SDS011;13899;51.174;4.456;2024-01-07T03:49:33;23.57;;;18.30;;
25917;SDS011;13899;51.174;4.456;2024-01-07T03:52:01;20.95;;;16.80;;
25917;SDS011;13899;51.174;4.456;2024-01-07T03:54:26;23.40;;;17.10;;
25917;SDS011;13899;51.174;4.456;2024-01-07T03:56:52;22.03;;;18.30;;
25917;SDS011;13899;51.174;4.456;2024-01-07T03:59:17;22.43;;;17.60;;
25917;SDS011;13899;51.174;4.456;2024-01-07T04:01:43;20.23;;;16.90;;
25917;SDS011;13899;51.174;4.456;2024-01-07T04:04:09;19.40;;;16.97;;
25917;SDS011;13899;51.174;4.456;2024-01-07T04:06:35;21.30;;;17.63;;
25917;SDS011;13899;51.174;4.456;2024-01-07T04:09:00;21.77;;;17.07;;
25917;SDS011;13899;51.174;4.456;2024-01-07T04:11:28;19.83;;;17.25;;
25917;SDS011;13899;51.174;4.456;2024-01-07T04:13:53;18.93;;;16.27;;
25917;SDS011;13899;51.174;4.456;2024-01-07T04:16:19;19.87;;;16.73;;
25917;SDS011;13899;51.174;4.456;2024-01-07T04:18:45;21.63;;;17.08;;
25917;SDS011;13899;51.174;4.456;2024-01-07T04:21:11;22.30;;;16.67;;
25917;SDS011;13899;51.174;4.456;2024-01-07T04:23:40;20.17;;;16.55;;
25917;SDS011;13899;51.174;4.456;2024-01-07T04:26:06;18.83;;;16.48;;
25917;SDS011;13899;51.174;4.456;2024-01-07T04:28:32;20.63;;;16.85;;
25917;SDS011;13899;51.174;4.456;2024-01-07T04:30:58;21.07;;;17.63;;
25917;SDS011;13899;51.174;4.456;2024-01-07T04:33:23;20.60;;;17.00;;
25917;SDS011;13899;51.174;4.456;2024-01-07T04:35:49;21.63;;;16.53;;
25917;SDS011;13899;51.174;4.456;2024-01-07T04:38:15;20.47;;;17.77;;
25917;SDS011;13899;51.174;4.456;2024-01-07T04:40:40;21.40;;;17.37;;
25917;SDS011;13899;51.174;4.456;2024-01-07T04:43:06;19.27;;;17.10;;
25917;SDS011;13899;51.174;4.456;2024-01-07T04:45:31;20.10;;;16.77;;
25917;SDS011;13899;51.174;4.456;2024-01-07T04:47:57;22.87;;;17.30;;
25917;SDS011;13899;51.174;4.456;2024-01-07T04:50:22;21.20;;;16.57;;
25917;SDS011;13899;51.174;4.456;2024-01-07T04:52:48;17.23;;;13.13;;
25917;SDS011;13899;51.174;4.456;2024-01-07T04:55:14;14.53;;;12.23;;
25917;SDS011;13899;51.174;4.456;2024-01-07T04:57:40;15.95;;;12.75;;
25917;SDS011;13899;51.174;4.456;2024-01-07T05:00:06;20.83;;;16.83;;
25917;SDS011;13899;51.174;4.456;2024-01-07T05:02:32;24.77;;;17.40;;
25917;SDS011;13899;51.174;4.456;2024-01-07T05:04:57;22.80;;;17.33;;
25917;SDS011;13899;51.174;4.456;2024-01-07T05:07:23;27.80;;;19.77;;
25917;SDS011;13899;51.174;4.456;2024-01-07T05:09:49;25.43;;;17.60;;
25917;SDS011;13899;51.174;4.456;2024-01-07T05:12:15;27.70;;;18.77;;
25917;SDS011;13899;51.174;4.456;2024-01-07T05:14:40;30.17;;;18.63;;
25917;SDS011;13899;51.174;4.456;2024-01-07T05:17:08;27.83;;;18.77;;
25917;SDS011;13899;51.174;4.456;2024-01-07T05:19:34;27.23;;;18.63;;
25917;SDS011;13899;51.174;4.456;2024-01-07T05:22:00;29.20;;;20.00;;
25917;SDS011;13899;51.174;4.456;2024-01-07T05:24:26;28.57;;;19.53;;
25917;SDS011;13899;51.174;4.456;2024-01-07T05:26:51;29.60;;;19.43;;
25917;SDS011;13899;51.174;4.456;2024-01-07T05:29:18;32.63;;;19.80;;
25917;SDS011;13899;51.174;4.456;2024-01-07T05:31:44;32.37;;;20.20;;
25917;SDS011;13899;51.174;4.456;2024-01-07T05:34:09;33.60;;;20.60;;
25917;SDS011;13899;51.174;4.456;2024-01-07T05:36:35;29.43;;;19.47;;
25917;SDS011;13899;51.174;4.456;2024-01-07T05:39:01;31.43;;;20.63;;
25917;SDS011;13899;51.174;4.456;2024-01-07T05:41:26;25.33;;;16.57;;
25917;SDS011;13899;51.174;4.456;2024-01-07T05:43:52;36.43;;;19.83;;
25917;SDS011;13899;51.174;4.456;2024-01-07T05:46:18;31.83;;;20.80;;
25917;SDS011;13899;51.174;4.456;2024-01-07T05:48:44;32.60;;;20.40;;
25917;SDS011;13899;51.174;4.456;2024-01-07T05:51:11;41.97;;;20.83;;
25917;SDS011;13899;51.174;4.456;2024-01-07T05:53:37;35.30;;;19.55;;
25917;SDS011;13899;51.174;4.456;2024-01-07T05:56:03;33.77;;;21.60;;
25917;SDS011;13899;51.174;4.456;2024-01-07T05:58:29;31.67;;;19.90;;
25917;SDS011;13899;51.174;4.456;2024-01-07T06:00:55;24.05;;;15.48;;
25917;SDS011;13899;51.174;4.456;2024-01-07T06:03:20;40.07;;;20.97;;
25917;SDS011;13899;51.174;4.456;2024-01-07T06:05:46;36.40;;;21.33;;
25917;SDS011;13899;51.174;4.456;2024-01-07T06:08:12;39.00;;;21.77;;
25917;SDS011;13899;51.174;4.456;2024-01-07T06:10:38;37.63;;;21.27;;
25917;SDS011;13899;51.174;4.456;2024-01-07T06:13:04;45.78;;;23.50;;
25917;SDS011;13899;51.174;4.456;2024-01-07T06:15:29;39.77;;;22.77;;
25917;SDS011;13899;51.174;4.456;2024-01-07T06:17:55;49.13;;;23.97;;
25917;SDS011;13899;51.174;4.456;2024-01-07T06:20:21;48.03;;;24.03;;
25917;SDS011;13899;51.174;4.456;2024-01-07T06:22:46;40.37;;;22.57;;
25917;SDS011;13899;51.174;4.456;2024-01-07T06:25:12;44.60;;;23.03;;
25917;SDS011;13899;51.174;4.456;2024-01-07T06:27:38;47.13;;;25.40;;
25917;SDS011;13899;51.174;4.456;2024-01-07T06:30:04;43.67;;;24.87;;
25917;SDS011;13899;51.174;4.456;2024-01-07T06:32:30;45.95;;;24.65;;
25917;SDS011;13899;51.174;4.456;2024-01-07T06:34:57;46.47;;;25.00;;
25917;SDS011;13899;51.174;4.456;2024-01-07T06:37:26;48.03;;;25.73;;
25917;SDS011;13899;51.174;4.456;2024-01-07T06:39:54;47.17;;;24.98;;
25917;SDS011;13899;51.174;4.456;2024-01-07T06:42:20;42.93;;;23.17;;
25917;SDS011;13899;51.174;4.456;2024-01-07T06:44:45;47.23;;;24.50;;
25917;SDS011;13899;51.174;4.456;2024-01-07T06:47:11;43.30;;;23.57;;
25917;SDS011;13899;51.174;4.456;2024-01-07T06:49:37;45.70;;;23.83;;
25917;SDS011;13899;51.174;4.456;2024-01-07T06:52:04;46.58;;;25.42;;
25917;SDS011;13899;51.174;4.456;2024-01-07T06:54:30;45.72;;;25.48;;
25917;SDS011;13899;51.174;4.456;2024-01-07T06:56:55;49.10;;;25.97;;
25917;SDS011;13899;51.174;4.456;2024-01-07T06:59:21;49.27;;;25.53;;
25917;SDS011;13899;51.174;4.456;2024-01-07T07:01:46;43.23;;;24.53;;
25917;SDS011;13899;51.174;4.456;2024-01-07T07:04:12;42.50;;;24.40;;
25917;SDS011;13899;51.174;4.456;2024-01-07T07:06:38;44.73;;;24.53;;
25917;SDS011;13899;51.174;4.456;2024-01-07T07:09:03;45.77;;;23.77;;
25917;SDS011;13899;51.174;4.456;2024-01-07T07:11:29;45.20;;;24.57;;
25917;SDS011;13899;51.174;4.456;2024-01-07T07:13:54;46.93;;;19.83;;
25917;SDS011;13899;51.174;4.456;2024-01-07T07:16:20;45.53;;;25.43;;
25917;SDS011;13899;51.174;4.456;2024-01-07T07:18:46;51.22;;;26.92;;
25917;SDS011;13899;51.174;4.456;2024-01-07T07:21:12;48.80;;;25.43;;
25917;SDS011;13899;51.174;4.456;2024-01-07T07:23:38;48.70;;;25.77;;
25917;SDS011;13899;51.174;4.456;2024-01-07T07:26:03;48.63;;;24.73;;
25917;SDS011;13899;51.174;4.456;2024-01-07T07:28:29;37.57;;;23.23;;
25917;SDS011;13899;51.174;4.456;2024-01-07T07:30:54;44.87;;;24.37;;
25917;SDS011;13899;51.174;4.456;2024-01-07T07:33:20;40.97;;;23.20;;
25917;SDS011;13899;51.174;4.456;2024-01-07T07:35:46;41.60;;;23.90;;
25917;SDS011;13899;51.174;4.456;2024-01-07T07:38:11;43.77;;;23.80;;
25917;SDS011;13899;51.174;4.456;2024-01-07T07:40:37;41.20;;;23.33;;
25917;SDS011;13899;51.174;4.456;2024-01-07T07:43:03;42.60;;;23.53;;
25917;SDS011;13899;51.174;4.456;2024-01-07T07:45:28;33.07;;;18.43;;
25917;SDS011;13899;51.174;4.456;2024-01-07T07:47:54;39.53;;;22.63;;
25917;SDS011;13899;51.174;4.456;2024-01-07T07:50:20;43.43;;;23.90;;
25917;SDS011;13899;51.174;4.456;2024-01-07T07:52:46;39.80;;;24.25;;
25917;SDS011;13899;51.174;4.456;2024-01-07T07:55:12;40.83;;;23.10;;
25917;SDS011;13899;51.174;4.456;2024-01-07T07:57:38;41.37;;;23.67;;
25917;SDS011;13899;51.174;4.456;2024-01-07T08:00:04;46.03;;;24.57;;
25917;SDS011;13899;51.174;4.456;2024-01-07T08:02:31;40.40;;;23.58;;
25917;SDS011;13899;51.174;4.456;2024-01-07T08:04:57;40.00;;;21.77;;
25917;SDS011;13899;51.174;4.456;2024-01-07T08:07:22;41.33;;;22.90;;
25917;SDS011;13899;51.174;4.456;2024-01-07T08:09:48;37.07;;;22.20;;
25917;SDS011;13899;51.174;4.456;2024-01-07T08:12:14;39.87;;;24.40;;
25917;SDS011;13899;51.174;4.456;2024-01-07T08:14:39;33.53;;;17.90;;
25917;SDS011;13899;51.174;4.456;2024-01-07T08:17:06;42.65;;;22.58;;
25917;SDS011;13899;51.174;4.456;2024-01-07T08:19:32;32.78;;;18.40;;
25917;SDS011;13899;51.174;4.456;2024-01-07T08:21:58;44.23;;;23.57;;
25917;SDS011;13899;51.174;4.456;2024-01-07T08:24:24;45.70;;;25.07;;
25917;SDS011;13899;51.174;4.456;2024-01-07T08:26:49;42.47;;;24.47;;
25917;SDS011;13899;51.174;4.456;2024-01-07T08:29:15;36.47;;;22.03;;
25917;SDS011;13899;51.174;4.456;2024-01-07T08:31:41;41.40;;;22.50;;
25917;SDS011;13899;51.174;4.456;2024-01-07T08:34:07;39.67;;;22.35;;
25917;SDS011;13899;51.174;4.456;2024-01-07T08:36:33;42.83;;;22.48;;
25917;SDS011;13899;51.174;4.456;2024-01-07T08:38:59;43.90;;;23.67;;
25917;SDS011;13899;51.174;4.456;2024-01-07T08:41:25;38.40;;;24.85;;
25917;SDS011;13899;51.174;4.456;2024-01-07T08:43:51;43.22;;;24.75;;
25917;SDS011;13899;51.174;4.456;2024-01-07T08:46:17;39.33;;;24.20;;
25917;SDS011;13899;51.174;4.456;2024-01-07T08:48:45;37.25;;;23.27;;
25917;SDS011;13899;51.174;4.456;2024-01-07T08:51:10;37.83;;;22.33;;
25917;SDS011;13899;51.174;4.456;2024-01-07T08:53:36;36.90;;;24.10;;
25917;SDS011;13899;51.174;4.456;2024-01-07T08:56:02;37.33;;;23.30;;
25917;SDS011;13899;51.174;4.456;2024-01-07T08:58:28;38.00;;;22.57;;
25917;SDS011;13899;51.174;4.456;2024-01-07T09:00:54;34.30;;;21.93;;
25917;SDS011;13899;51.174;4.456;2024-01-07T09:03:19;35.43;;;22.30;;
25917;SDS011;13899;51.174;4.456;2024-01-07T09:05:45;32.57;;;21.70;;
25917;SDS011;13899;51.174;4.456;2024-01-07T09:08:11;35.67;;;23.63;;
25917;SDS011;13899;51.174;4.456;2024-01-07T09:10:39;35.00;;;21.73;;
25917;SDS011;13899;51.174;4.456;2024-01-07T09:13:05;32.43;;;19.97;;
25917;SDS011;13899;51.174;4.456;2024-01-07T09:15:30;30.10;;;21.63;;
25917;SDS011;13899;51.174;4.456;2024-01-07T09:17:56;30.23;;;20.20;;
25917;SDS011;13899;51.174;4.456;2024-01-07T09:20:22;34.63;;;22.53;;
25917;SDS011;13899;51.174;4.456;2024-01-07T09:22:48;33.45;;;21.55;;
25917;SDS011;13899;51.174;4.456;2024-01-07T09:25:14;35.57;;;21.50;;
25917;SDS011;13899;51.174;4.456;2024-01-07T09:27:39;31.43;;;20.10;;
25917;SDS011;13899;51.174;4.456;2024-01-07T09:30:05;31.03;;;20.23;;
25917;SDS011;13899;51.174;4.456;2024-01-07T09:32:31;30.15;;;20.77;;
25917;SDS011;13899;51.174;4.456;2024-01-07T09:34:57;33.70;;;20.80;;
25917;SDS011;13899;51.174;4.456;2024-01-07T09:37:23;33.93;;;20.10;;
25917;SDS011;13899;51.174;4.456;2024-01-07T09:39:48;27.80;;;19.50;;
25917;SDS011;13899;51.174;4.456;2024-01-07T09:42:18;27.20;;;19.42;;
25917;SDS011;13899;51.174;4.456;2024-01-07T09:44:44;30.35;;;20.35;;
25917;SDS011;13899;51.174;4.456;2024-01-07T09:47:11;28.53;;;20.10;;
25917;SDS011;13899;51.174;4.456;2024-01-07T09:49:40;26.02;;;18.77;;
25917;SDS011;13899;51.174;4.456;2024-01-07T09:52:07;23.75;;;19.80;;
25917;SDS011;13899;51.174;4.456;2024-01-07T09:54:38;25.27;;;18.40;;
25917;SDS011;13899;51.174;4.456;2024-01-07T09:57:04;25.45;;;18.77;;
25917;SDS011;13899;51.174;4.456;2024-01-07T09:59:31;24.13;;;18.42;;
25917;SDS011;13899;51.174;4.456;2024-01-07T10:01:57;24.83;;;19.60;;
25917;SDS011;13899;51.174;4.456;2024-01-07T10:04:24;29.40;;;19.93;;
25917;SDS011;13899;51.174;4.456;2024-01-07T10:06:50;27.63;;;19.55;;
25917;SDS011;13899;51.174;4.456;2024-01-07T10:09:17;29.50;;;19.73;;
25917;SDS011;13899;51.174;4.456;2024-01-07T10:11:44;27.65;;;19.30;;
25917;SDS011;13899;51.174;4.456;2024-01-07T10:14:10;26.17;;;19.63;;
25917;SDS011;13899;51.174;4.456;2024-01-07T10:16:36;22.90;;;19.27;;
25917;SDS011;13899;51.174;4.456;2024-01-07T10:19:01;20.23;;;15.33;;
25917;SDS011;13899;51.174;4.456;2024-01-07T10:21:27;29.90;;;20.50;;
25917;SDS011;13899;51.174;4.456;2024-01-07T10:26:38;23.58;;;18.30;;
25917;SDS011;13899;51.174;4.456;2024-01-07T10:29:05;23.00;;;18.52;;
25917;SDS011;13899;51.174;4.456;2024-01-07T10:31:31;24.23;;;17.15;;
25917;SDS011;13899;51.174;4.456;2024-01-07T10:33:57;18.95;;;16.48;;
25917;SDS011;13899;51.174;4.456;2024-01-07T10:36:26;15.23;;;12.87;;
25917;SDS011;13899;51.174;4.456;2024-01-07T10:38:52;22.90;;;17.40;;
25917;SDS011;13899;51.174;4.456;2024-01-07T10:43:48;24.85;;;16.60;;
25917;SDS011;13899;51.174;4.456;2024-01-07T10:46:14;21.75;;;16.92;;
25917;SDS011;13899;51.174;4.456;2024-01-07T10:51:18;27.17;;;16.77;;
25917;SDS011;13899;51.174;4.456;2024-01-07T10:53:46;18.73;;;15.60;;
25917;SDS011;13899;51.174;4.456;2024-01-07T10:56:17;21.00;;;16.13;;
25917;SDS011;13899;51.174;4.456;2024-01-07T10:58:47;20.13;;;17.27;;
25917;SDS011;13899;51.174;4.456;2024-01-07T11:01:14;22.48;;;16.40;;
25917;SDS011;13899;51.174;4.456;2024-01-07T11:03:41;14.47;;;11.73;;
25917;SDS011;13899;51.174;4.456;2024-01-07T11:06:21;20.65;;;15.50;;
25917;SDS011;13899;51.174;4.456;2024-01-07T11:09:06;20.05;;;17.00;;
25917;SDS011;13899;51.174;4.456;2024-01-07T11:11:49;22.42;;;17.75;;
25917;SDS011;13899;51.174;4.456;2024-01-07T11:14:34;15.80;;;12.65;;
25917;SDS011;13899;51.174;4.456;2024-01-07T11:17:00;20.10;;;15.93;;
25917;SDS011;13899;51.174;4.456;2024-01-07T11:24:55;20.85;;;15.43;;
25917;SDS011;13899;51.174;4.456;2024-01-07T11:27:22;17.70;;;15.38;;
25917;SDS011;13899;51.174;4.456;2024-01-07T11:29:53;20.48;;;16.20;;
25917;SDS011;13899;51.174;4.456;2024-01-07T11:32:33;18.70;;;15.65;;
25917;SDS011;13899;51.174;4.456;2024-01-07T11:35:00;18.27;;;15.38;;
25917;SDS011;13899;51.174;4.456;2024-01-07T11:37:27;18.10;;;16.15;;
25917;SDS011;13899;51.174;4.456;2024-01-07T11:39:57;17.23;;;14.65;;
25917;SDS011;13899;51.174;4.456;2024-01-07T11:42:23;17.13;;;15.40;;
25917;SDS011;13899;51.174;4.456;2024-01-07T11:44:51;14.02;;;12.55;;
25917;SDS011;13899;51.174;4.456;2024-01-07T11:47:19;20.17;;;16.95;;
25917;SDS011;13899;51.174;4.456;2024-01-07T11:49:45;18.15;;;16.10;;
25917;SDS011;13899;51.174;4.456;2024-01-07T11:52:11;18.13;;;16.37;;
25917;SDS011;13899;51.174;4.456;2024-01-07T11:54:38;18.95;;;16.77;;
25917;SDS011;13899;51.174;4.456;2024-01-07T11:57:04;14.27;;;11.80;;
25917;SDS011;13899;51.174;4.456;2024-01-07T11:59:31;18.95;;;15.38;;
25917;SDS011;13899;51.174;4.456;2024-01-07T12:01:59;18.48;;;14.63;;
25917;SDS011;13899;51.174;4.456;2024-01-07T12:04:25;17.95;;;15.82;;
25917;SDS011;13899;51.174;4.456;2024-01-07T12:06:51;17.77;;;15.77;;
25917;SDS011;13899;51.174;4.456;2024-01-07T12:09:17;17.43;;;12.20;;
25917;SDS011;13899;51.174;4.456;2024-01-07T12:11:42;15.57;;;13.10;;
25917;SDS011;13899;51.174;4.456;2024-01-07T12:14:09;17.25;;;15.38;;
25917;SDS011;13899;51.174;4.456;2024-01-07T12:16:36;13.05;;;11.75;;
25917;SDS011;13899;51.174;4.456;2024-01-07T12:19:02;16.35;;;14.75;;
25917;SDS011;13899;51.174;4.456;2024-01-07T12:21:27;15.97;;;14.00;;
25917;SDS011;13899;51.174;4.456;2024-01-07T12:23:54;17.35;;;14.40;;
25917;SDS011;13899;51.174;4.456;2024-01-07T12:26:25;17.63;;;13.88;;
25917;SDS011;13899;51.174;4.456;2024-01-07T12:28:52;18.98;;;14.38;;
25917;SDS011;13899;51.174;4.456;2024-01-07T12:31:22;17.75;;;13.20;;
25917;SDS011;13899;51.174;4.456;2024-01-07T12:33:48;16.98;;;12.85;;
25917;SDS011;13899;51.174;4.456;2024-01-07T12:36:14;14.30;;;12.20;;
25917;SDS011;13899;51.174;4.456;2024-01-07T12:38:40;18.10;;;13.53;;
25917;SDS011;13899;51.174;4.456;2024-01-07T12:41:06;12.57;;;9.88;;
25917;SDS011;13899;51.174;4.456;2024-01-07T12:43:32;13.93;;;12.40;;
25917;SDS011;13899;51.174;4.456;2024-01-07T12:45:58;14.38;;;12.98;;
25917;SDS011;13899;51.174;4.456;2024-01-07T12:48:29;14.38;;;12.88;;
25917;SDS011;13899;51.174;4.456;2024-01-07T12:50:55;14.32;;;12.68;;
25917;SDS011;13899;51.174;4.456;2024-01-07T12:53:21;15.30;;;13.70;;
25917;SDS011;13899;51.174;4.456;2024-01-07T12:55:47;14.20;;;12.80;;
25917;SDS011;13899;51.174;4.456;2024-01-07T12:58:12;14.43;;;13.00;;
25917;SDS011;13899;51.174;4.456;2024-01-07T13:00:38;12.93;;;10.77;;
25917;SDS011;13899;51.174;4.456;2024-01-07T13:03:05;13.63;;;12.30;;
25917;SDS011;13899;51.174;4.456;2024-01-07T13:05:32;13.57;;;12.18;;
25917;SDS011;13899;51.174;4.456;2024-01-07T13:07:58;14.40;;;12.90;;
25917;SDS011;13899;51.174;4.456;2024-01-07T13:10:25;15.23;;;13.07;;
25917;SDS011;13899;51.174;4.456;2024-01-07T13:12:50;14.87;;;12.67;;
25917;SDS011;13899;51.174;4.456;2024-01-07T13:15:16;14.03;;;12.70;;
25917;SDS011;13899;51.174;4.456;2024-01-07T13:17:42;15.27;;;13.17;;
25917;SDS011;13899;51.174;4.456;2024-01-07T13:20:08;11.27;;;10.27;;
25917;SDS011;13899;51.174;4.456;2024-01-07T13:22:36;14.77;;;13.18;;
25917;SDS011;13899;51.174;4.456;2024-01-07T13:25:04;14.93;;;13.50;;
25917;SDS011;13899;51.174;4.456;2024-01-07T13:27:30;17.30;;;14.10;;
25917;SDS011;13899;51.174;4.456;2024-01-07T13:29:55;12.33;;;11.13;;
25917;SDS011;13899;51.174;4.456;2024-01-07T13:32:21;16.93;;;14.10;;
25917;SDS011;13899;51.174;4.456;2024-01-07T13:34:47;14.90;;;13.33;;
25917;SDS011;13899;51.174;4.456;2024-01-07T13:37:13;14.95;;;13.45;;
25917;SDS011;13899;51.174;4.456;2024-01-07T13:39:39;14.50;;;12.80;;
25917;SDS011;13899;51.174;4.456;2024-01-07T13:42:05;15.27;;;13.77;;
25917;SDS011;13899;51.174;4.456;2024-01-07T13:44:30;14.93;;;13.20;;
25917;SDS011;13899;51.174;4.456;2024-01-07T13:46:56;13.20;;;10.47;;
25917;SDS011;13899;51.174;4.456;2024-01-07T13:49:22;16.40;;;14.03;;
25917;SDS011;13899;51.174;4.456;2024-01-07T13:51:47;16.53;;;13.33;;
25917;SDS011;13899;51.174;4.456;2024-01-07T13:54:13;16.07;;;14.40;;
25917;SDS011;13899;51.174;4.456;2024-01-07T13:56:43;16.40;;;14.70;;
25917;SDS011;13899;51.174;4.456;2024-01-07T13:59:09;19.13;;;15.45;;
25917;SDS011;13899;51.174;4.456;2024-01-07T14:01:35;16.58;;;14.82;;
25917;SDS011;13899;51.174;4.456;2024-01-07T14:04:01;18.33;;;15.00;;
25917;SDS011;13899;51.174;4.456;2024-01-07T14:06:28;15.35;;;11.55;;
25917;SDS011;13899;51.174;4.456;2024-01-07T14:08:53;16.27;;;14.57;;
25917;SDS011;13899;51.174;4.456;2024-01-07T14:11:19;17.43;;;15.03;;
25917;SDS011;13899;51.174;4.456;2024-01-07T14:13:46;19.50;;;14.82;;
25917;SDS011;13899;51.174;4.456;2024-01-07T14:16:12;15.27;;;13.50;;
25917;SDS011;13899;51.174;4.456;2024-01-07T14:18:38;16.92;;;13.55;;
25917;SDS011;13899;51.174;4.456;2024-01-07T14:21:04;12.27;;;10.55;;
25917;SDS011;13899;51.174;4.456;2024-01-07T14:23:30;15.33;;;13.13;;
25917;SDS011;13899;51.174;4.456;2024-01-07T14:25:56;11.02;;;9.90;;
25917;SDS011;13899;51.174;4.456;2024-01-07T14:28:22;10.87;;;9.57;;
25917;SDS011;13899;51.174;4.456;2024-01-07T14:30:48;14.20;;;12.80;;